sensor_id;sensor_type;location;lat;lon;timestamp;pressure;altitude;pressure_sealevel;temperature;humidity
40073;BME280;25774;52.256;9.356;2022-09-30T00:00:05;99653.63;;;7.57;100.00
40073;BME280;25774;52.256;9.356;2022-09-30T00:02:31;99675.50;;;7.73;100.00
40073;BME280;25774;52.256;9.356;2022-09-30T00:04:56;99664.38;;;7.68;100.00
40073;BME280;25774;52.256;9.356;2022-09-30T00:07:22;99669.06;;;7.63;100.00
40073;BME280;25774;52.256;9.356;2022-09-30T00:09:49;99675.56;;;7.72;100.00
40073;BME280;25774;52.256;9.356;2022-09-30T00:12:15;99664.47;;;7.51;100.00
40073;BME280;25774;52.256;9.356;2022-09-30T00:14:40;99674.47;;;7.60;100.00
40073;BME280;25774;52.256;9.356;2022-09-30T00:17:06;99674.97;;;7.66;100.00
40073;BME280;25774;52.256;9.356;2022-09-30T00:19:32;99678.53;;;7.65;100.00
40073;BME280;25774;52.256;9.356;2022-09-30T00:21:57;99679.03;;;7.72;100.00
40073;BME280;25774;52.256;9.356;2022-09-30T00:24:22;99669.06;;;7.63;100.00
40073;BME280;25774;52.256;9.356;2022-09-30T00:26:48;99680.75;;;7.73;100.00
40073;BME280;25774;52.256;9.356;2022-09-30T00:29:13;99680.91;;;7.70;100.00
40073;BME280;25774;52.256;9.356;2022-09-30T00:31:39;99676.78;;;7.66;100.00
40073;BME280;25774;52.256;9.356;2022-09-30T00:34:05;99659.91;;;7.54;100.00
40073;BME280;25774;52.256;9.356;2022-09-30T00:36:43;99662.19;;;7.60;100.00
40073;BME280;25774;52.256;9.356;2022-09-30T00:39:25;99664.03;;;7.58;100.00
40073;BME280;25774;52.256;9.356;2022-09-30T00:41:56;99666.00;;;7.55;100.00
40073;BME280;25774;52.256;9.356;2022-09-30T00:50:02;99682.16;;;7.14;100.00
40073;BME280;25774;52.256;9.356;2022-09-30T00:52:31;99691.19;;;7.26;100.00
40073;BME280;25774;52.256;9.356;2022-09-30T00:54:57;99685.94;;;7.26;100.00
40073;BME280;25774;52.256;9.356;2022-09-30T00:57:24;99684.91;;;7.12;100.00
40073;BME280;25774;52.256;9.356;2022-09-30T00:59:50;99689.19;;;7.13;100.00
40073;BME280;25774;52.256;9.356;2022-09-30T01:02:16;99693.50;;;7.14;100.00
40073;BME280;25774;52.256;9.356;2022-09-30T01:04:43;99702.16;;;7.16;100.00
40073;BME280;25774;52.256;9.356;2022-09-30T01:07:10;99702.31;;;7.13;100.00
40073;BME280;25774;52.256;9.356;2022-09-30T01:09:39;99707.25;;;7.19;100.00
40073;BME280;25774;52.256;9.356;2022-09-30T01:12:16;99718.75;;;7.17;100.00
40073;BME280;25774;52.256;9.356;2022-09-30T01:14:45;99704.66;;;7.02;100.00
40073;BME280;25774;52.256;9.356;2022-09-30T01:42:34;99706.56;;;7.16;100.00
40073;BME280;25774;52.256;9.356;2022-09-30T01:45:27;99712.09;;;7.27;100.00
40073;BME280;25774;52.256;9.356;2022-09-30T01:47:55;99696.13;;;7.14;100.00
40073;BME280;25774;52.256;9.356;2022-09-30T01:50:28;99695.44;;;7.11;100.00
40073;BME280;25774;52.256;9.356;2022-09-30T01:55:40;99700.06;;;6.90;100.00
40073;BME280;25774;52.256;9.356;2022-09-30T01:58:15;99710.22;;;6.96;100.00
40073;BME280;25774;52.256;9.356;2022-09-30T02:00:46;99715.38;;;6.97;100.00
40073;BME280;25774;52.256;9.356;2022-09-30T02:03:18;99706.91;;;6.92;100.00
40073;BME280;25774;52.256;9.356;2022-09-30T02:05:48;99709.34;;;6.95;100.00
40073;BME280;25774;52.256;9.356;2022-09-30T02:08:22;99706.81;;;6.94;100.00
40073;BME280;25774;52.256;9.356;2022-09-30T02:11:02;99715.31;;;6.82;100.00
40073;BME280;25774;52.256;9.356;2022-09-30T02:13:34;99717.19;;;6.80;100.00
40073;BME280;25774;52.256;9.356;2022-09-30T02:16:06;99721.25;;;6.85;100.00
40073;BME280;25774;52.256;9.356;2022-09-30T02:21:44;99726.97;;;6.76;100.00
40073;BME280;25774;52.256;9.356;2022-09-30T02:24:15;99718.94;;;6.79;100.00
40073;BME280;25774;52.256;9.356;2022-09-30T02:26:43;99730.22;;;6.81;100.00
40073;BME280;25774;52.256;9.356;2022-09-30T02:29:27;99733.78;;;6.80;100.00
40073;BME280;25774;52.256;9.356;2022-09-30T02:31:59;99735.94;;;6.89;100.00
40073;BME280;25774;52.256;9.356;2022-09-30T02:34:37;99737.94;;;6.84;100.00
40073;BME280;25774;52.256;9.356;2022-09-30T02:37:17;99734.63;;;6.81;100.00
40073;BME280;25774;52.256;9.356;2022-09-30T02:39:51;99736.91;;;6.69;100.00
40073;BME280;25774;52.256;9.356;2022-09-30T02:42:21;99731.91;;;6.65;100.00
40073;BME280;25774;52.256;9.356;2022-09-30T02:44:51;99751.59;;;6.73;100.00
40073;BME280;25774;52.256;9.356;2022-09-30T02:47:31;99742.25;;;6.68;100.00
40073;BME280;25774;52.256;9.356;2022-09-30T02:50:11;99741.94;;;6.74;100.00
40073;BME280;25774;52.256;9.356;2022-09-30T02:52:47;99740.56;;;6.67;100.00
40073;BME280;25774;52.256;9.356;2022-09-30T02:58:05;99741.38;;;6.50;100.00
40073;BME280;25774;52.256;9.356;2022-09-30T03:00:34;99744.09;;;6.48;100.00
40073;BME280;25774;52.256;9.356;2022-09-30T03:03:21;99737.22;;;6.46;100.00
40073;BME280;25774;52.256;9.356;2022-09-30T03:05:49;99737.41;;;6.24;100.00
40073;BME280;25774;52.256;9.356;2022-09-30T03:08:16;99743.88;;;6.34;100.00
40073;BME280;25774;52.256;9.356;2022-09-30T03:10:42;99743.13;;;6.32;100.00
40073;BME280;25774;52.256;9.356;2022-09-30T03:16:01;99759.56;;;6.36;100.00
40073;BME280;25774;52.256;9.356;2022-09-30T03:18:56;99762.78;;;6.41;100.00
40073;BME280;25774;52.256;9.356;2022-09-30T03:21:54;99759.59;;;6.34;100.00
40073;BME280;25774;52.256;9.356;2022-09-30T03:27:42;99769.91;;;6.20;100.00
40073;BME280;25774;52.256;9.356;2022-09-30T03:30:15;99768.28;;;6.17;100.00
40073;BME280;25774;52.256;9.356;2022-09-30T03:32:55;99780.59;;;6.15;100.00
40073;BME280;25774;52.256;9.356;2022-09-30T03:35:40;99789.81;;;6.24;100.00
40073;BME280;25774;52.256;9.356;2022-09-30T03:46:31;99784.13;;;6.33;100.00
40073;BME280;25774;52.256;9.356;2022-09-30T03:49:02;99769.41;;;6.12;100.00
40073;BME280;25774;52.256;9.356;2022-09-30T03:51:31;99788.16;;;6.21;100.00
40073;BME280;25774;52.256;9.356;2022-09-30T03:53:58;99787.47;;;6.18;100.00
40073;BME280;25774;52.256;9.356;2022-09-30T03:58:50;99795.03;;;6.24;100.00
40073;BME280;25774;52.256;9.356;2022-09-30T04:01:18;99807.47;;;6.38;100.00
40073;BME280;25774;52.256;9.356;2022-09-30T04:03:49;99797.22;;;6.33;100.00
40073;BME280;25774;52.256;9.356;2022-09-30T04:06:17;99795.25;;;6.38;100.00
40073;BME280;25774;52.256;9.356;2022-09-30T04:08:43;99791.69;;;6.39;100.00
40073;BME280;25774;52.256;9.356;2022-09-30T04:11:10;99783.44;;;6.29;100.00
40073;BME280;25774;52.256;9.356;2022-09-30T04:13:37;99796.00;;;6.40;100.00
40073;BME280;25774;52.256;9.356;2022-09-30T04:16:03;99787.97;;;6.26;100.00
40073;BME280;25774;52.256;9.356;2022-09-30T04:18:28;99778.25;;;6.09;100.00
40073;BME280;25774;52.256;9.356;2022-09-30T04:20:58;99787.31;;;6.21;100.00
40073;BME280;25774;52.256;9.356;2022-09-30T04:23:24;99786.25;;;6.25;100.00
40073;BME280;25774;52.256;9.356;2022-09-30T04:25:54;99792.72;;;6.18;100.00
40073;BME280;25774;52.256;9.356;2022-09-30T04:28:20;99782.75;;;6.07;100.00
40073;BME280;25774;52.256;9.356;2022-09-30T04:30:46;99800.72;;;6.15;100.00
40073;BME280;25774;52.256;9.356;2022-09-30T04:33:11;99794.44;;;6.00;100.00
40073;BME280;25774;52.256;9.356;2022-09-30T04:35:37;99802.84;;;6.07;100.00
40073;BME280;25774;52.256;9.356;2022-09-30T04:38:09;99807.31;;;6.04;100.00
40073;BME280;25774;52.256;9.356;2022-09-30T04:40:35;99816.16;;;6.02;100.00
40073;BME280;25774;52.256;9.356;2022-09-30T04:43:02;99826.47;;;6.24;100.00
40073;BME280;25774;52.256;9.356;2022-09-30T04:45:27;99819.84;;;6.17;100.00
40073;BME280;25774;52.256;9.356;2022-09-30T04:47:54;99823.53;;;6.13;100.00
40073;BME280;25774;52.256;9.356;2022-09-30T04:50:19;99822.38;;;6.18;100.00
40073;BME280;25774;52.256;9.356;2022-09-30T04:52:45;99817.84;;;6.03;100.00
40073;BME280;25774;52.256;9.356;2022-09-30T04:55:10;99826.28;;;6.10;100.00
40073;BME280;25774;52.256;9.356;2022-09-30T04:57:36;99830.03;;;6.04;100.00
40073;BME280;25774;52.256;9.356;2022-09-30T05:00:03;99836.13;;;6.04;100.00
40073;BME280;25774;52.256;9.356;2022-09-30T05:02:28;99834.94;;;5.91;100.00
40073;BME280;25774;52.256;9.356;2022-09-30T05:04:54;99840.56;;;6.02;100.00
40073;BME280;25774;52.256;9.356;2022-09-30T05:07:20;99835.59;;;5.96;100.00
40073;BME280;25774;52.256;9.356;2022-09-30T05:09:46;99835.59;;;5.96;100.00
40073;BME280;25774;52.256;9.356;2022-09-30T05:12:11;99843.03;;;6.05;100.00
40073;BME280;25774;52.256;9.356;2022-09-30T05:14:37;99837.09;;;6.02;100.00
40073;BME280;25774;52.256;9.356;2022-09-30T05:17:03;99842.44;;;6.00;100.00
40073;BME280;25774;52.256;9.356;2022-09-30T05:19:29;99843.00;;;5.87;100.00
40073;BME280;25774;52.256;9.356;2022-09-30T05:21:54;99852.75;;;5.83;100.00
40073;BME280;25774;52.256;9.356;2022-09-30T05:24:19;99871.81;;;6.07;100.00
40073;BME280;25774;52.256;9.356;2022-09-30T05:26:45;99865.72;;;6.07;100.00
40073;BME280;25774;52.256;9.356;2022-09-30T05:29:11;99859.72;;;5.84;100.00
40073;BME280;25774;52.256;9.356;2022-09-30T05:31:37;99872.41;;;5.93;100.00
40073;BME280;25774;52.256;9.356;2022-09-30T05:34:02;99867.91;;;5.97;100.00
40073;BME280;25774;52.256;9.356;2022-09-30T05:36:28;99862.59;;;5.57;100.00
40073;BME280;25774;52.256;9.356;2022-09-30T05:38:54;99878.81;;;5.86;100.00
40073;BME280;25774;52.256;9.356;2022-09-30T05:41:19;99882.09;;;5.91;100.00
40073;BME280;25774;52.256;9.356;2022-09-30T05:43:45;99887.97;;;5.96;100.00
40073;BME280;25774;52.256;9.356;2022-09-30T05:46:15;99890.47;;;5.99;100.00
40073;BME280;25774;52.256;9.356;2022-09-30T05:48:41;99888.91;;;5.95;100.00
40073;BME280;25774;52.256;9.356;2022-09-30T05:51:08;99892.19;;;6.00;100.00
40073;BME280;25774;52.256;9.356;2022-09-30T05:53:33;99904.88;;;6.10;100.00
40073;BME280;25774;52.256;9.356;2022-09-30T05:56:02;99891.19;;;6.03;100.00
40073;BME280;25774;52.256;9.356;2022-09-30T05:58:28;99907.00;;;6.20;100.00
40073;BME280;25774;52.256;9.356;2022-09-30T06:00:53;99906.78;;;6.25;100.00
40073;BME280;25774;52.256;9.356;2022-09-30T06:03:19;99909.78;;;6.36;100.00
40073;BME280;25774;52.256;9.356;2022-09-30T06:05:44;99900.56;;;6.27;100.00
40073;BME280;25774;52.256;9.356;2022-09-30T06:08:10;99924.09;;;6.48;100.00
40073;BME280;25774;52.256;9.356;2022-09-30T06:10:40;99919.06;;;6.43;100.00
40073;BME280;25774;52.256;9.356;2022-09-30T06:13:06;99915.59;;;6.43;100.00
40073;BME280;25774;52.256;9.356;2022-09-30T06:15:31;99926.59;;;6.51;100.00
40073;BME280;25774;52.256;9.356;2022-09-30T06:17:56;99923.88;;;6.52;100.00
40073;BME280;25774;52.256;9.356;2022-09-30T06:20:22;99923.66;;;6.57;100.00
40073;BME280;25774;52.256;9.356;2022-09-30T06:22:49;99926.22;;;6.59;100.00
40073;BME280;25774;52.256;9.356;2022-09-30T06:25:14;99931.09;;;6.66;100.00
40073;BME280;25774;52.256;9.356;2022-09-30T06:27:43;99932.59;;;6.72;100.00
40073;BME280;25774;52.256;9.356;2022-09-30T06:30:09;99944.47;;;6.79;100.00
40073;BME280;25774;52.256;9.356;2022-09-30T06:32:35;99951.72;;;6.93;100.00
40073;BME280;25774;52.256;9.356;2022-09-30T06:35:00;99949.41;;;7.04;100.00
40073;BME280;25774;52.256;9.356;2022-09-30T06:37:28;99949.28;;;7.07;100.00
40073;BME280;25774;52.256;9.356;2022-09-30T06:39:53;99955.91;;;7.14;100.00
40073;BME280;25774;52.256;9.356;2022-09-30T06:42:19;99963.19;;;7.27;100.00
40073;BME280;25774;52.256;9.356;2022-09-30T06:44:44;99964.81;;;7.29;100.00
40073;BME280;25774;52.256;9.356;2022-09-30T06:47:12;99969.63;;;7.38;100.00
40073;BME280;25774;52.256;9.356;2022-09-30T06:49:38;99972.97;;;7.59;100.00
40073;BME280;25774;52.256;9.356;2022-09-30T06:52:05;99978.94;;;7.63;100.00
40073;BME280;25774;52.256;9.356;2022-09-30T06:54:30;99980.84;;;7.77;100.00
40073;BME280;25774;52.256;9.356;2022-09-30T06:56:55;99972.72;;;7.81;100.00
40073;BME280;25774;52.256;9.356;2022-09-30T06:59:24;99980.63;;;7.99;100.00
40073;BME280;25774;52.256;9.356;2022-09-30T07:01:49;99978.69;;;8.02;100.00
40073;BME280;25774;52.256;9.356;2022-09-30T07:04:16;99987.19;;;8.07;100.00
40073;BME280;25774;52.256;9.356;2022-09-30T07:06:42;100008.66;;;8.15;100.00
40073;BME280;25774;52.256;9.356;2022-09-30T07:09:08;100018.78;;;8.41;100.00
40073;BME280;25774;52.256;9.356;2022-09-30T07:11:34;100002.00;;;8.43;100.00
40073;BME280;25774;52.256;9.356;2022-09-30T07:14:01;100002.41;;;8.51;100.00
40073;BME280;25774;52.256;9.356;2022-09-30T07:16:28;100004.78;;;8.40;100.00
40073;BME280;25774;52.256;9.356;2022-09-30T07:18:55;100008.63;;;8.50;100.00
40073;BME280;25774;52.256;9.356;2022-09-30T07:21:20;100005.41;;;8.28;100.00
40073;BME280;25774;52.256;9.356;2022-09-30T07:23:46;100022.19;;;8.43;100.00
40073;BME280;25774;52.256;9.356;2022-09-30T07:26:20;100020.16;;;8.48;100.00
40073;BME280;25774;52.256;9.356;2022-09-30T07:28:46;100019.16;;;8.33;100.00
40073;BME280;25774;52.256;9.356;2022-09-30T07:31:18;100045.69;;;8.46;100.00
40073;BME280;25774;52.256;9.356;2022-09-30T07:33:46;100038.66;;;8.46;100.00
40073;BME280;25774;52.256;9.356;2022-09-30T07:36:14;100049.91;;;8.66;100.00
40073;BME280;25774;52.256;9.356;2022-09-30T07:38:41;100055.53;;;8.75;100.00
40073;BME280;25774;52.256;9.356;2022-09-30T07:41:16;100061.94;;;8.70;100.00
40073;BME280;25774;52.256;9.356;2022-09-30T07:43:43;100051.84;;;8.62;100.00
40073;BME280;25774;52.256;9.356;2022-09-30T07:46:20;100070.25;;;8.95;100.00
40073;BME280;25774;52.256;9.356;2022-09-30T07:48:47;100052.91;;;8.91;100.00
40073;BME280;25774;52.256;9.356;2022-09-30T07:53:47;100058.53;;;9.01;100.00
40073;BME280;25774;52.256;9.356;2022-09-30T07:56:13;100088.38;;;9.49;100.00
40073;BME280;25774;52.256;9.356;2022-09-30T07:58:39;100081.47;;;9.46;100.00
40073;BME280;25774;52.256;9.356;2022-09-30T08:01:05;100074.34;;;9.48;100.00
40073;BME280;25774;52.256;9.356;2022-09-30T08:03:33;100077.97;;;9.77;100.00
40073;BME280;25774;52.256;9.356;2022-09-30T08:06:07;100069.22;;;9.77;100.00
40073;BME280;25774;52.256;9.356;2022-09-30T08:08:33;100084.91;;;10.24;100.00
40073;BME280;25774;52.256;9.356;2022-09-30T08:10:59;100078.28;;;10.47;100.00
40073;BME280;25774;52.256;9.356;2022-09-30T08:13:25;100073.59;;;10.96;100.00
40073;BME280;25774;52.256;9.356;2022-09-30T08:15:52;100051.38;;;10.85;100.00
40073;BME280;25774;52.256;9.356;2022-09-30T08:18:18;100028.53;;;10.84;100.00
40073;BME280;25774;52.256;9.356;2022-09-30T08:20:43;100012.91;;;10.67;100.00
40073;BME280;25774;52.256;9.356;2022-09-30T08:23:09;100032.94;;;11.12;100.00
40073;BME280;25774;52.256;9.356;2022-09-30T08:25:37;100021.22;;;11.16;100.00
40073;BME280;25774;52.256;9.356;2022-09-30T08:28:02;100023.63;;;11.34;100.00
40073;BME280;25774;52.256;9.356;2022-09-30T08:30:28;100001.94;;;11.02;100.00
40073;BME280;25774;52.256;9.356;2022-09-30T08:32:53;100017.13;;;11.39;100.00
40073;BME280;25774;52.256;9.356;2022-09-30T08:35:19;100013.06;;;11.34;100.00
40073;BME280;25774;52.256;9.356;2022-09-30T08:37:45;99998.66;;;11.25;100.00
40073;BME280;25774;52.256;9.356;2022-09-30T08:40:35;100003.75;;;11.28;100.00
40073;BME280;25774;52.256;9.356;2022-09-30T08:51:46;100021.09;;;11.86;100.00
40073;BME280;25774;52.256;9.356;2022-09-30T08:54:17;100018.88;;;11.93;100.00
40073;BME280;25774;52.256;9.356;2022-09-30T08:56:44;100016.66;;;11.87;100.00
40073;BME280;25774;52.256;9.356;2022-09-30T08:59:31;100025.28;;;12.16;100.00
40073;BME280;25774;52.256;9.356;2022-09-30T09:02:12;100012.03;;;12.03;100.00
40073;BME280;25774;52.256;9.356;2022-09-30T09:04:39;100016.50;;;12.41;100.00
40073;BME280;25774;52.256;9.356;2022-09-30T09:07:20;100000.72;;;12.52;100.00
40073;BME280;25774;52.256;9.356;2022-09-30T09:20:58;99970.97;;;12.98;100.00
40073;BME280;25774;52.256;9.356;2022-09-30T09:23:29;99964.91;;;13.09;100.00
40073;BME280;25774;52.256;9.356;2022-09-30T09:25:57;99945.97;;;13.02;100.00
40073;BME280;25774;52.256;9.356;2022-09-30T09:28:30;99949.50;;;13.14;100.00
40073;BME280;25774;52.256;9.356;2022-09-30T09:31:00;99926.09;;;12.34;100.00
40073;BME280;25774;52.256;9.356;2022-09-30T09:33:31;99935.94;;;12.58;100.00
40073;BME280;25774;52.256;9.356;2022-09-30T09:36:31;99937.19;;;13.50;100.00
40073;BME280;25774;52.256;9.356;2022-09-30T09:42:28;99882.84;;;13.56;100.00
40073;BME280;25774;52.256;9.356;2022-09-30T09:45:09;99820.69;;;13.60;100.00
40073;BME280;25774;52.256;9.356;2022-09-30T09:47:36;99828.44;;;13.85;100.00
40073;BME280;25774;52.256;9.356;2022-09-30T09:50:03;99826.72;;;13.73;100.00
40073;BME280;25774;52.256;9.356;2022-09-30T09:55:03;99793.22;;;13.94;100.00
40073;BME280;25774;52.256;9.356;2022-09-30T09:57:29;99783.09;;;14.00;100.00
40073;BME280;25774;52.256;9.356;2022-09-30T10:00:05;99805.63;;;14.05;100.00
40073;BME280;25774;52.256;9.356;2022-09-30T10:05:32;99842.28;;;14.00;100.00
40073;BME280;25774;52.256;9.356;2022-09-30T10:08:18;99865.09;;;14.14;100.00
40073;BME280;25774;52.256;9.356;2022-09-30T10:15:45;99830.59;;;14.36;100.00
40073;BME280;25774;52.256;9.356;2022-09-30T10:18:18;99777.00;;;14.31;100.00
40073;BME280;25774;52.256;9.356;2022-09-30T10:20:56;99760.97;;;14.33;100.00
40073;BME280;25774;52.256;9.356;2022-09-30T10:23:31;99758.28;;;14.44;100.00
40073;BME280;25774;52.256;9.356;2022-09-30T10:26:09;99832.56;;;14.78;100.00
40073;BME280;25774;52.256;9.356;2022-09-30T10:31:21;99802.91;;;14.50;100.00
40073;BME280;25774;52.256;9.356;2022-09-30T10:36:40;99844.03;;;15.10;100.00
40073;BME280;25774;52.256;9.356;2022-09-30T10:39:29;99870.34;;;15.14;100.00
40073;BME280;25774;52.256;9.356;2022-09-30T10:42:06;99828.56;;;15.16;100.00
40073;BME280;25774;52.256;9.356;2022-09-30T10:47:21;99793.66;;;14.88;100.00
40073;BME280;25774;52.256;9.356;2022-09-30T10:50:13;99742.03;;;14.70;100.00
40073;BME280;25774;52.256;9.356;2022-09-30T10:57:45;99784.97;;;15.07;100.00
40073;BME280;25774;52.256;9.356;2022-09-30T11:00:14;99717.94;;;15.24;100.00
40073;BME280;25774;52.256;9.356;2022-09-30T11:03:09;99702.59;;;15.07;100.00
40073;BME280;25774;52.256;9.356;2022-09-30T11:05:44;99675.72;;;15.00;100.00
40073;BME280;25774;52.256;9.356;2022-09-30T11:11:03;99746.22;;;15.25;100.00
40073;BME280;25774;52.256;9.356;2022-09-30T11:16:36;99786.59;;;15.40;100.00
40073;BME280;25774;52.256;9.356;2022-09-30T11:21:55;99735.59;;;15.25;100.00
40073;BME280;25774;52.256;9.356;2022-09-30T11:24:31;99685.03;;;14.95;100.00
40073;BME280;25774;52.256;9.356;2022-09-30T11:32:23;99761.47;;;14.70;100.00
40073;BME280;25774;52.256;9.356;2022-09-30T11:40:51;99711.06;;;15.22;100.00
40073;BME280;25774;52.256;9.356;2022-09-30T11:51:39;99808.56;;;15.63;100.00
40073;BME280;25774;52.256;9.356;2022-09-30T11:54:29;99685.31;;;15.74;100.00
40073;BME280;25774;52.256;9.356;2022-09-30T11:57:25;99671.06;;;15.94;100.00
40073;BME280;25774;52.256;9.356;2022-09-30T11:59:58;99639.88;;;16.25;100.00
40073;BME280;25774;52.256;9.356;2022-09-30T12:02:30;99767.53;;;16.37;100.00
40073;BME280;25774;52.256;9.356;2022-09-30T12:05:05;99733.88;;;16.26;100.00
40073;BME280;25774;52.256;9.356;2022-09-30T12:07:39;99597.00;;;16.19;100.00
40073;BME280;25774;52.256;9.356;2022-09-30T12:10:35;99628.78;;;16.11;100.00
40073;BME280;25774;52.256;9.356;2022-09-30T12:13:07;99587.31;;;16.27;100.00
40073;BME280;25774;52.256;9.356;2022-09-30T12:15:38;99560.06;;;16.63;100.00
40073;BME280;25774;52.256;9.356;2022-09-30T12:18:18;99385.34;;;16.05;100.00
40073;BME280;25774;52.256;9.356;2022-09-30T12:20:46;99443.47;;;16.00;100.00
40073;BME280;25774;52.256;9.356;2022-09-30T12:23:27;99647.41;;;16.49;100.00
40073;BME280;25774;52.256;9.356;2022-09-30T12:25:59;99574.13;;;17.02;100.00
40073;BME280;25774;52.256;9.356;2022-09-30T12:28:32;99538.00;;;16.90;100.00
40073;BME280;25774;52.256;9.356;2022-09-30T12:37:08;99626.94;;;15.92;100.00
40073;BME280;25774;52.256;9.356;2022-09-30T12:39:49;99646.41;;;16.99;100.00
40073;BME280;25774;52.256;9.356;2022-09-30T12:42:33;99518.69;;;16.68;100.00
40073;BME280;25774;52.256;9.356;2022-09-30T12:47:49;99589.78;;;16.68;100.00
40073;BME280;25774;52.256;9.356;2022-09-30T12:50:18;99410.38;;;16.12;100.00
40073;BME280;25774;52.256;9.356;2022-09-30T12:52:45;99570.28;;;16.77;100.00
40073;BME280;25774;52.256;9.356;2022-09-30T12:57:45;99367.06;;;16.85;99.44
40073;BME280;25774;52.256;9.356;2022-09-30T13:00:17;99280.31;;;16.72;95.12
40073;BME280;25774;52.256;9.356;2022-09-30T13:02:46;99370.31;;;16.79;95.06
40073;BME280;25774;52.256;9.356;2022-09-30T13:10:32;99498.34;;;17.32;99.80
40073;BME280;25774;52.256;9.356;2022-09-30T13:13:28;99147.91;;;16.91;89.81
40073;BME280;25774;52.256;9.356;2022-09-30T13:15:57;99259.63;;;17.54;87.14
40073;BME280;25774;52.256;9.356;2022-09-30T13:23:40;99396.09;;;17.77;88.96
40073;BME280;25774;52.256;9.356;2022-09-30T13:31:26;99455.53;;;17.70;89.46
40073;BME280;25774;52.256;9.356;2022-09-30T13:41:43;99091.34;;;16.35;83.48
40073;BME280;25774;52.256;9.356;2022-09-30T13:44:21;99233.78;;;16.67;84.13
40073;BME280;25774;52.256;9.356;2022-09-30T13:46:59;98930.03;;;16.77;77.51
40073;BME280;25774;52.256;9.356;2022-09-30T13:49:41;99032.38;;;17.00;77.80
40073;BME280;25774;52.256;9.356;2022-09-30T13:52:20;99109.72;;;16.82;79.93
40073;BME280;25774;52.256;9.356;2022-09-30T13:54:47;99447.19;;;17.19;86.37
40073;BME280;25774;52.256;9.356;2022-09-30T13:57:24;99282.63;;;17.29;82.43
40073;BME280;25774;52.256;9.356;2022-09-30T14:00:12;99274.25;;;16.98;83.56
40073;BME280;25774;52.256;9.356;2022-09-30T14:02:45;99506.94;;;16.61;93.69
40073;BME280;25774;52.256;9.356;2022-09-30T14:21:55;99050.13;;;16.65;80.06
40073;BME280;25774;52.256;9.356;2022-09-30T14:24:23;99129.34;;;16.81;79.77
40073;BME280;25774;52.256;9.356;2022-09-30T14:31:45;99174.03;;;16.69;81.59
40073;BME280;25774;52.256;9.356;2022-09-30T14:34:13;99328.41;;;16.71;85.96
40073;BME280;25774;52.256;9.356;2022-09-30T14:36:40;99511.88;;;16.93;90.72
40073;BME280;25774;52.256;9.356;2022-09-30T14:39:13;99282.13;;;16.72;85.75
40073;BME280;25774;52.256;9.356;2022-09-30T14:41:50;99140.13;;;16.54;83.21
40073;BME280;25774;52.256;9.356;2022-09-30T14:44:16;99192.38;;;16.55;83.42
40073;BME280;25774;52.256;9.356;2022-09-30T14:46:44;99144.88;;;16.68;80.71
40073;BME280;25774;52.256;9.356;2022-09-30T14:49:23;99426.53;;;17.03;86.29
40073;BME280;25774;52.256;9.356;2022-09-30T14:51:54;99447.00;;;16.85;89.56
40073;BME280;25774;52.256;9.356;2022-09-30T14:54:22;99169.63;;;16.60;83.24
40073;BME280;25774;52.256;9.356;2022-09-30T14:56:48;99158.22;;;16.50;82.99
40073;BME280;25774;52.256;9.356;2022-09-30T14:59:18;99220.31;;;16.68;82.22
40073;BME280;25774;52.256;9.356;2022-09-30T15:01:46;99157.00;;;16.44;82.69
40073;BME280;25774;52.256;9.356;2022-09-30T15:04:15;99426.03;;;16.62;87.79
40073;BME280;25774;52.256;9.356;2022-09-30T15:06:45;99769.09;;;16.49;100.00
40073;BME280;25774;52.256;9.356;2022-09-30T15:12:06;99518.38;;;16.24;98.49
40073;BME280;25774;52.256;9.356;2022-09-30T15:14:51;99530.41;;;16.38;98.76
40073;BME280;25774;52.256;9.356;2022-09-30T15:17:19;99439.31;;;16.35;95.41
40073;BME280;25774;52.256;9.356;2022-09-30T15:19:44;99686.13;;;16.54;100.00
40073;BME280;25774;52.256;9.356;2022-09-30T15:22:11;99495.09;;;16.26;99.01
40073;BME280;25774;52.256;9.356;2022-09-30T15:24:38;99494.44;;;16.15;99.78
40073;BME280;25774;52.256;9.356;2022-09-30T15:27:05;99348.38;;;16.02;94.44
40073;BME280;25774;52.256;9.356;2022-09-30T15:29:34;99277.94;;;15.96;91.71
40073;BME280;25774;52.256;9.356;2022-09-30T15:32:07;99265.25;;;16.18;89.95
40073;BME280;25774;52.256;9.356;2022-09-30T15:34:36;99475.69;;;16.07;97.58
40073;BME280;25774;52.256;9.356;2022-09-30T15:37:03;99384.38;;;15.96;94.94
40073;BME280;25774;52.256;9.356;2022-09-30T15:39:33;99470.09;;;16.00;97.62
40073;BME280;25774;52.256;9.356;2022-09-30T15:42:39;99417.59;;;15.92;95.43
40073;BME280;25774;52.256;9.356;2022-09-30T15:48:51;99425.13;;;15.97;95.41
40073;BME280;25774;52.256;9.356;2022-09-30T15:50:54;99505.66;;;15.99;98.59
40073;BME280;25774;52.256;9.356;2022-09-30T15:53:21;99500.47;;;15.88;99.60
40073;BME280;25774;52.256;9.356;2022-09-30T15:55:48;99507.34;;;15.90;99.59
40073;BME280;25774;52.256;9.356;2022-09-30T15:58:29;99849.56;;;15.81;100.00
40073;BME280;25774;52.256;9.356;2022-09-30T16:01:42;99632.66;;;15.68;100.00
40073;BME280;25774;52.256;9.356;2022-09-30T16:06:50;99827.38;;;15.50;100.00
40073;BME280;25774;52.256;9.356;2022-09-30T16:09:17;99802.88;;;15.26;100.00
40073;BME280;25774;52.256;9.356;2022-09-30T16:14:29;99663.88;;;15.14;100.00
40073;BME280;25774;52.256;9.356;2022-09-30T16:17:01;99646.59;;;14.99;100.00
40073;BME280;25774;52.256;9.356;2022-09-30T16:19:28;99697.94;;;14.78;100.00
40073;BME280;25774;52.256;9.356;2022-09-30T16:21:54;99682.91;;;14.88;100.00
40073;BME280;25774;52.256;9.356;2022-09-30T16:26:56;99695.00;;;14.60;100.00
40073;BME280;25774;52.256;9.356;2022-09-30T16:29:23;99733.25;;;14.58;100.00
40073;BME280;25774;52.256;9.356;2022-09-30T16:31:53;99726.91;;;14.38;100.00
40073;BME280;25774;52.256;9.356;2022-09-30T16:34:24;99734.84;;;14.17;100.00
40073;BME280;25774;52.256;9.356;2022-09-30T16:36:52;99743.16;;;14.12;100.00